createdAt,value
2019-01-25T00:00:51.327Z,90.40
2019-01-25T00:03:20.397Z,90.30
2019-01-25T01:35:55.753Z,90.80
2019-01-25T01:38:27.721Z,90.60
2019-01-25T01:40:57.134Z,90.20
2019-01-25T01:43:26.531Z,90.80
2019-01-25T01:45:55.649Z,90.90
2019-01-25T01:48:24.740Z,90.40
2019-01-25T01:50:53.848Z,90.80
2019-01-25T01:53:23.220Z,90.70
2019-01-25T01:55:52.317Z,91.00
2019-01-25T01:58:21.433Z,90.70
2019-01-25T02:00:50.521Z,90.90
2019-01-25T02:03:19.596Z,90.90
2019-01-25T02:05:49.042Z,90.70
2019-01-25T02:08:18.405Z,91.00
2019-01-25T02:10:47.806Z,90.80
2019-01-25T02:17:55.118Z,91.20
2019-01-25T02:20:27.648Z,91.00
2019-01-25T02:30:32.444Z,91.10
2019-01-25T02:33:01.796Z,91.10
2019-01-25T02:35:30.852Z,91.00
2019-01-25T02:37:59.971Z,91.40
2019-01-25T02:40:29.045Z,91.50
2019-01-25T02:42:58.124Z,91.20
2019-01-25T02:45:27.252Z,91.00
2019-01-25T02:47:56.664Z,91.40
2019-01-25T02:50:26.058Z,92.00
2019-01-25T02:53:03.559Z,91.70
2019-01-25T02:55:26.043Z,92.00
2019-01-25T02:57:55.386Z,91.80
2019-01-25T03:00:25.928Z,91.90
2019-01-25T03:02:55.124Z,91.50
2019-01-25T03:05:25.026Z,91.60
2019-01-25T03:07:54.210Z,91.40
2019-01-25T03:10:28.450Z,91.20
2019-01-25T03:12:54.131Z,91.00
2019-01-25T03:15:26.030Z,91.10
2019-01-25T03:17:55.432Z,91.30
2019-01-25T03:20:24.497Z,91.30
2019-01-25T03:22:53.612Z,91.10
2019-01-25T03:25:25.698Z,91.00
2019-01-25T03:27:55.087Z,91.30
2019-01-25T03:30:26.148Z,91.30
2019-01-25T03:32:55.234Z,91.30
2019-01-25T03:35:26.596Z,91.10
2019-01-25T03:37:56.071Z,91.00
2019-01-25T03:40:27.607Z,91.00
2019-01-25T03:42:57.033Z,91.00
2019-01-25T03:45:26.147Z,91.20
2019-01-25T03:47:55.213Z,91.40
2019-01-25T03:50:27.587Z,91.30
2019-01-25T03:52:56.704Z,91.50
2019-01-25T03:55:26.402Z,91.30
2019-01-25T03:57:55.458Z,91.30
2019-01-25T04:00:29.810Z,91.70
2019-01-25T04:02:58.973Z,91.20
2019-01-25T04:05:27.992Z,91.40
2019-01-25T04:07:57.106Z,91.30
2019-01-25T04:10:28.390Z,91.10
2019-01-25T04:12:57.904Z,91.70
2019-01-25T04:15:30.746Z,92.20
2019-01-25T04:17:59.809Z,92.20
2019-01-25T04:20:29.084Z,91.80
2019-01-25T04:22:58.519Z,92.20
2019-01-25T04:25:27.609Z,91.90
2019-01-25T04:27:56.672Z,91.90
2019-01-25T04:30:28.951Z,92.20
2019-01-25T04:32:58.021Z,92.00
2019-01-25T04:35:27.095Z,92.20
2019-01-25T04:37:56.226Z,92.50
2019-01-25T04:40:25.567Z,92.60
2019-01-25T04:42:54.648Z,92.20
2019-01-25T04:45:24.413Z,92.50
2019-01-25T04:47:53.770Z,92.30
2019-01-25T04:50:24.929Z,92.30
2019-01-25T04:52:54.132Z,92.30
2019-01-25T04:55:29.986Z,92.20
2019-01-25T04:58:12.525Z,92.40
2019-01-25T05:00:41.598Z,92.30
2019-01-25T05:03:11.006Z,92.30
2019-01-25T05:05:40.128Z,92.50
2019-01-25T05:08:16.390Z,92.60
2019-01-25T05:10:45.537Z,92.70
2019-01-25T05:13:14.611Z,92.50
2019-01-25T05:15:43.923Z,92.80
2019-01-25T05:18:13.053Z,92.70
2019-01-25T05:20:42.425Z,92.80
2019-01-25T05:23:11.538Z,92.90
2019-01-25T05:25:40.642Z,93.00
2019-01-25T05:28:16.615Z,92.70
2019-01-25T05:30:56.745Z,92.70
2019-01-25T05:33:25.817Z,93.00
2019-01-25T05:35:54.958Z,93.20
2019-01-25T05:38:24.110Z,93.00
2019-01-25T05:40:53.533Z,93.60
2019-01-25T05:43:22.600Z,92.90
2019-01-25T05:45:52.015Z,93.10
2019-01-25T05:48:25.028Z,93.00
2019-01-25T05:50:54.119Z,93.10
2019-01-25T05:53:23.516Z,92.60
2019-01-25T05:55:52.601Z,93.00
2019-01-25T05:58:22.014Z,92.90
2019-01-25T06:00:51.404Z,92.80
2019-01-25T06:03:20.813Z,93.10
2019-01-25T06:05:49.882Z,92.60
2019-01-25T06:08:30.165Z,92.70
2019-01-25T06:11:01.744Z,92.60
2019-01-25T06:13:31.115Z,93.40
2019-01-25T06:16:00.236Z,93.30
2019-01-25T06:18:29.318Z,92.30
2019-01-25T06:20:59.334Z,92.40
2019-01-25T06:23:28.441Z,92.60
2019-01-25T06:25:59.418Z,92.90
2019-01-25T06:28:28.752Z,93.10
2019-01-25T06:30:57.923Z,92.80
2019-01-25T06:33:27.249Z,93.30
2019-01-25T06:35:56.691Z,93.50
2019-01-25T06:38:25.786Z,93.20
2019-01-25T06:40:54.877Z,93.50
2019-01-25T06:43:23.932Z,93.70
2019-01-25T06:45:53.046Z,93.80
2019-01-25T06:48:22.451Z,93.70
2019-01-25T06:50:51.520Z,93.90
2019-01-25T06:53:20.891Z,94.00
2019-01-25T06:55:49.957Z,93.80
2019-01-25T06:58:20.995Z,93.90
2019-01-25T07:00:52.025Z,93.90
2019-01-25T07:03:21.106Z,94.00
2019-01-25T07:05:50.180Z,94.00
2019-01-25T07:08:20.073Z,94.00
2019-01-25T07:10:49.151Z,93.80
2019-01-25T07:13:18.513Z,93.80
2019-01-25T07:15:47.635Z,93.90
2019-01-25T07:18:16.718Z,93.80
2019-01-25T07:20:45.790Z,93.90
2019-01-25T07:23:15.213Z,93.90
2019-01-25T07:25:44.618Z,93.90
2019-01-25T07:28:13.684Z,94.10
2019-01-25T07:30:43.114Z,94.10
2019-01-25T07:33:12.179Z,94.20
2019-01-25T07:35:41.637Z,94.20
2019-01-25T07:38:11.010Z,94.20
2019-01-25T07:40:42.817Z,94.10
2019-01-25T07:43:12.159Z,94.20
2019-01-25T07:45:41.575Z,94.20
2019-01-25T07:48:10.969Z,94.10
2019-01-25T07:50:40.037Z,94.00
2019-01-25T07:53:09.187Z,94.20
2019-01-25T07:55:38.241Z,93.80
2019-01-25T07:58:07.338Z,94.10
2019-01-25T08:00:36.427Z,94.20
2019-01-25T08:03:05.504Z,94.30
2019-01-25T08:05:34.541Z,94.20
2019-01-25T08:08:03.687Z,94.30
2019-01-25T08:10:33.218Z,94.20
2019-01-25T08:13:02.425Z,94.10
2019-01-25T08:15:31.583Z,94.30
2019-01-25T08:18:00.695Z,94.10
2019-01-25T08:20:29.934Z,94.20
2019-01-25T08:22:59.042Z,94.00
2019-01-25T08:25:28.199Z,93.80
2019-01-25T08:27:57.350Z,93.90
2019-01-25T08:30:26.943Z,93.80
2019-01-25T08:32:55.984Z,93.90
2019-01-25T08:35:25.034Z,93.90
2019-01-25T08:37:54.406Z,93.50
2019-01-25T08:40:23.544Z,93.60
2019-01-25T08:42:52.615Z,93.50
2019-01-25T08:45:22.076Z,93.50
2019-01-25T08:47:51.094Z,93.50
2019-01-25T08:50:27.496Z,93.60
2019-01-25T08:52:56.900Z,93.90
2019-01-25T08:55:26.486Z,94.00
2019-01-25T08:57:55.713Z,94.10
2019-01-25T09:00:27.026Z,94.20
2019-01-25T09:02:56.425Z,94.30
2019-01-25T09:05:25.767Z,94.70
2019-01-25T09:07:55.138Z,95.40
2019-01-25T09:10:27.080Z,95.00
2019-01-25T09:12:56.199Z,95.20
2019-01-25T09:15:29.747Z,95.10
2019-01-25T09:17:59.092Z,95.30
2019-01-25T09:20:28.230Z,95.40
2019-01-25T09:22:57.306Z,95.80
2019-01-25T09:25:26.436Z,96.00
2019-01-25T09:27:57.225Z,96.10
2019-01-25T09:30:28.268Z,96.50
2019-01-25T09:32:57.336Z,96.50
2019-01-25T09:35:26.463Z,96.70
2019-01-25T09:37:55.846Z,96.70
2019-01-25T09:40:26.825Z,96.80
2019-01-25T09:42:55.915Z,96.90
2019-01-25T09:45:25.289Z,96.70
2019-01-25T09:47:54.353Z,96.70
2019-01-25T09:50:23.844Z,96.70
2019-01-25T09:52:53.461Z,96.70
2019-01-25T09:55:25.563Z,96.50
2019-01-25T09:58:02.551Z,96.40
2019-01-25T10:00:45.190Z,96.30
2019-01-25T10:03:14.542Z,96.90
2019-01-25T10:05:43.587Z,96.40
2019-01-25T10:08:12.940Z,96.40
2019-01-25T10:10:43.691Z,96.80
2019-01-25T10:13:12.720Z,96.40
2019-01-25T10:15:41.756Z,96.50
2019-01-25T10:18:10.826Z,96.40
2019-01-25T10:20:40.152Z,96.30
2019-01-25T10:23:11.851Z,96.50
2019-01-25T10:25:40.989Z,96.30
2019-01-25T10:28:10.048Z,96.30
2019-01-25T10:30:39.402Z,96.40
2019-01-25T10:33:08.567Z,96.50
2019-01-25T10:35:37.903Z,96.70
2019-01-25T10:38:06.973Z,96.60
2019-01-25T10:40:36.080Z,96.30
2019-01-25T10:43:05.500Z,96.20
2019-01-25T10:45:39.189Z,96.00
2019-01-25T10:48:09.168Z,96.10
2019-01-25T10:50:38.298Z,96.30
2019-01-25T10:53:08.940Z,96.20
2019-01-25T10:55:39.221Z,95.80
2019-01-25T10:58:08.547Z,95.80
2019-01-25T11:00:37.684Z,95.90
2019-01-25T11:03:07.053Z,95.60
2019-01-25T11:05:36.106Z,95.50
2019-01-25T11:08:05.445Z,95.40
2019-01-25T11:10:34.869Z,95.40
2019-01-25T11:13:03.933Z,95.40
2019-01-25T11:15:32.998Z,95.30
2019-01-25T11:18:02.107Z,95.10
2019-01-25T11:20:31.172Z,95.40
2019-01-25T11:23:00.237Z,95.50
2019-01-25T11:25:36.322Z,95.50
2019-01-25T11:28:05.446Z,95.30
2019-01-25T11:30:34.799Z,95.20
2019-01-25T11:33:04.188Z,94.90
2019-01-25T11:35:33.254Z,95.40
2019-01-25T11:38:02.321Z,95.10
2019-01-25T11:40:38.847Z,94.70
2019-01-25T11:43:08.964Z,94.60
2019-01-25T11:45:38.975Z,94.50
2019-01-25T11:48:12.004Z,94.20
2019-01-25T11:50:41.072Z,93.70
2019-01-25T11:53:10.133Z,94.20
2019-01-25T11:55:39.246Z,94.00
2019-01-25T11:58:08.673Z,93.70
2019-01-25T12:00:39.714Z,93.70
2019-01-25T12:03:08.814Z,93.50
2019-01-25T12:05:37.888Z,93.30
2019-01-25T12:08:06.948Z,93.50
2019-01-25T12:10:36.058Z,93.00
2019-01-25T12:13:05.388Z,92.80
2019-01-25T12:15:34.453Z,93.20
2019-01-25T12:18:03.999Z,93.20
2019-01-25T12:20:34.324Z,93.20
2019-01-25T12:23:03.721Z,93.10
2019-01-25T12:25:32.860Z,92.90
2019-01-25T12:28:05.339Z,92.70
2019-01-25T12:30:38.192Z,92.50
2019-01-25T12:33:08.518Z,92.50
2019-01-25T12:35:40.307Z,92.40
2019-01-25T12:38:09.371Z,92.50
2019-01-25T12:40:42.136Z,92.30
2019-01-25T12:43:09.265Z,92.20
2019-01-25T12:45:38.324Z,92.10
2019-01-25T12:48:07.760Z,92.40
2019-01-25T12:50:41.395Z,92.20
2019-01-25T12:53:12.515Z,91.90
2019-01-25T12:55:41.578Z,92.00
2019-01-25T12:58:10.906Z,92.30
2019-01-25T13:00:41.557Z,91.80
2019-01-25T13:03:11.227Z,92.10
2019-01-25T13:05:40.368Z,92.00
2019-01-25T13:08:09.536Z,91.70
2019-01-25T13:10:38.948Z,91.90
2019-01-25T13:13:08.012Z,92.20
2019-01-25T13:15:37.129Z,91.90
2019-01-25T13:18:06.441Z,91.90
2019-01-25T13:20:39.529Z,92.20
2019-01-25T13:23:06.925Z,92.00
2019-01-25T13:25:36.273Z,92.10
2019-01-25T13:28:08.277Z,92.20
2019-01-25T13:30:37.396Z,92.10
2019-01-25T13:33:06.730Z,91.80
2019-01-25T13:35:35.802Z,91.90
2019-01-25T13:38:05.246Z,91.80
2019-01-25T13:40:34.315Z,91.80
2019-01-25T13:43:03.390Z,92.00
2019-01-25T13:45:32.554Z,91.70
2019-01-25T13:48:01.620Z,92.00
2019-01-25T13:50:31.252Z,91.70
2019-01-25T13:53:00.419Z,91.80
2019-01-25T13:55:29.647Z,91.80
2019-01-25T13:57:59.026Z,91.90
2019-01-25T14:00:34.062Z,92.00
2019-01-25T14:03:03.131Z,91.90
2019-01-25T14:05:32.445Z,91.90
2019-01-25T14:08:01.558Z,91.80
2019-01-25T14:10:36.891Z,91.90
2019-01-25T14:13:06.283Z,92.10
2019-01-25T14:15:35.352Z,91.60
2019-01-25T14:18:04.860Z,92.00
2019-01-25T14:20:34.443Z,91.80
2019-01-25T14:23:03.505Z,91.80
2019-01-25T14:25:32.886Z,91.80
2019-01-25T14:28:02.000Z,91.80
2019-01-25T14:30:41.159Z,91.80
2019-01-25T14:33:10.518Z,91.80
2019-01-25T14:35:39.585Z,91.40
2019-01-25T14:38:08.711Z,91.40
2019-01-25T14:40:38.106Z,91.80
2019-01-25T14:43:07.184Z,91.70
2019-01-25T14:45:36.516Z,91.90
2019-01-25T14:48:05.978Z,91.80
2019-01-25T14:50:35.314Z,91.60
2019-01-25T14:53:04.850Z,91.80
2019-01-25T14:55:34.233Z,92.20
2019-01-25T14:58:03.637Z,91.70
2019-01-25T15:00:32.718Z,91.70
2019-01-25T15:03:02.131Z,92.00
2019-01-25T15:05:31.194Z,92.00
2019-01-25T15:08:00.257Z,92.20
2019-01-25T15:10:29.363Z,92.10
2019-01-25T15:12:58.717Z,92.20
2019-01-25T15:15:27.792Z,92.00
2019-01-25T15:17:57.096Z,92.20
2019-01-25T15:20:28.703Z,91.90
2019-01-25T15:22:58.070Z,92.20
2019-01-25T15:25:27.174Z,92.60
2019-01-25T15:27:56.261Z,92.70
2019-01-25T15:30:28.733Z,92.90
2019-01-25T15:32:57.852Z,93.00
2019-01-25T15:35:26.981Z,93.20
2019-01-25T15:37:56.043Z,93.70
2019-01-25T15:40:25.410Z,94.20
2019-01-25T15:42:56.155Z,94.60
2019-01-25T15:45:25.451Z,95.10
2019-01-25T15:47:54.543Z,96.20
2019-01-25T15:50:27.120Z,96.20
2019-01-25T15:52:56.177Z,96.50
2019-01-25T15:55:25.434Z,96.70
2019-01-25T15:57:54.826Z,96.90
2019-01-25T16:00:27.915Z,97.10
2019-01-25T16:02:57.335Z,97.30
2019-01-25T16:05:26.406Z,97.60
2019-01-25T16:07:55.539Z,97.90
2019-01-25T16:10:24.638Z,98.00
2019-01-25T16:12:53.830Z,98.50
2019-01-25T16:15:28.663Z,98.60
2019-01-25T16:17:57.810Z,98.60
2019-01-25T16:20:26.879Z,98.60
2019-01-25T16:22:56.845Z,99.10
2019-01-25T16:25:32.336Z,99.10
2019-01-25T16:28:01.411Z,98.90
2019-01-25T16:30:35.949Z,98.90
2019-01-25T16:33:05.492Z,99.00
2019-01-25T16:35:34.559Z,99.20
2019-01-25T16:38:04.146Z,99.40
2019-01-25T16:40:34.839Z,99.30
2019-01-25T16:43:04.163Z,99.30
2019-01-25T16:45:41.536Z,99.40
2019-01-25T16:48:11.083Z,99.50
2019-01-25T16:50:40.154Z,99.50
2019-01-25T16:53:10.627Z,99.60
2019-01-25T16:55:39.958Z,99.70
2019-01-25T16:58:09.018Z,99.90
2019-01-25T17:00:41.944Z,99.90
2019-01-25T17:03:11.091Z,99.90
2019-01-25T17:05:40.440Z,99.90
2019-01-25T17:08:09.818Z,99.90
2019-01-25T17:10:39.243Z,99.90
2019-01-25T17:13:08.306Z,99.90
2019-01-25T17:15:37.436Z,99.90
2019-01-25T17:18:07.243Z,99.90
2019-01-25T17:20:36.300Z,99.90
2019-01-25T17:23:05.411Z,99.90
2019-01-25T17:25:34.475Z,99.90
2019-01-25T17:28:04.448Z,99.90
2019-01-25T17:30:37.321Z,99.90
2019-01-25T17:33:06.496Z,99.90
2019-01-25T17:35:35.559Z,99.90
2019-01-25T17:38:05.331Z,99.90
2019-01-25T17:40:46.378Z,99.90
2019-01-25T17:43:12.518Z,99.90
2019-01-25T17:45:41.578Z,99.90
2019-01-25T17:48:10.697Z,99.90
2019-01-25T17:50:39.831Z,99.90
2019-01-25T17:53:08.885Z,99.90
2019-01-25T17:55:40.669Z,99.90
2019-01-25T17:58:10.005Z,99.90
2019-01-25T18:00:40.711Z,99.90
2019-01-25T18:03:12.866Z,99.90
2019-01-25T18:05:41.969Z,99.90
2019-01-25T18:08:11.036Z,99.90
2019-01-25T18:10:40.154Z,99.90
2019-01-25T18:13:09.248Z,99.90
2019-01-25T18:15:38.311Z,99.90
2019-01-25T18:18:07.648Z,99.90
2019-01-25T18:20:36.825Z,99.90
2019-01-25T18:23:06.144Z,99.90
2019-01-25T18:25:42.762Z,99.90
2019-01-25T18:28:19.551Z,99.90
2019-01-25T18:31:17.955Z,99.90
2019-01-25T18:33:47.272Z,99.90
2019-01-25T18:36:16.371Z,99.90
2019-01-25T18:38:45.468Z,99.90
2019-01-25T18:41:14.866Z,99.90
2019-01-25T18:43:43.945Z,99.90
2019-01-25T18:46:13.057Z,99.90
2019-01-25T18:48:42.458Z,99.90
2019-01-25T18:51:11.518Z,99.90
2019-01-25T18:53:40.686Z,99.90
2019-01-25T18:56:10.517Z,99.90
2019-01-25T18:58:39.569Z,99.90
2019-01-25T19:01:08.779Z,99.90
2019-01-25T19:03:37.820Z,99.90
2019-01-25T19:06:06.879Z,99.90
2019-01-25T19:08:35.981Z,99.90
2019-01-25T19:11:05.335Z,99.90
2019-01-25T19:13:34.386Z,99.90
2019-01-25T19:16:03.548Z,99.90
2019-01-25T19:18:32.623Z,99.90
2019-01-25T19:21:02.040Z,99.90
2019-01-25T19:23:31.151Z,99.90
2019-01-25T19:26:00.263Z,99.90
2019-01-25T19:28:29.332Z,99.90
2019-01-25T19:30:58.442Z,99.90
2019-01-25T19:33:27.816Z,99.90
2019-01-25T19:35:58.612Z,99.90
2019-01-25T19:38:27.819Z,99.90
2019-01-25T19:40:57.139Z,99.90
2019-01-25T19:43:26.201Z,99.90
2019-01-25T19:45:55.326Z,99.90
2019-01-25T19:48:24.732Z,99.90
2019-01-25T19:50:53.787Z,99.90
2019-01-25T19:53:23.731Z,99.90
2019-01-25T19:55:52.829Z,99.90
2019-01-25T19:58:21.891Z,99.90
2019-01-25T20:00:51.058Z,99.90
2019-01-25T20:03:20.117Z,99.90
2019-01-25T20:05:49.173Z,99.90
2019-01-25T20:08:18.281Z,99.90
2019-01-25T20:10:47.341Z,99.90
2019-01-25T20:13:16.405Z,99.90
2019-01-25T20:15:45.767Z,99.90
2019-01-25T20:18:14.831Z,99.90
2019-01-25T20:20:43.890Z,99.90
2019-01-25T20:23:13.003Z,99.90
2019-01-25T20:25:42.379Z,99.90
2019-01-25T20:28:12.004Z,99.90
2019-01-25T20:30:41.503Z,99.90
2019-01-25T20:33:10.560Z,99.90
2019-01-25T20:35:43.130Z,99.90
2019-01-25T20:38:12.574Z,99.90
2019-01-25T20:40:41.629Z,99.90
2019-01-25T20:43:10.689Z,99.90
2019-01-25T20:45:42.506Z,99.90
2019-01-25T20:48:11.568Z,99.90
2019-01-25T20:50:40.620Z,99.90
2019-01-25T20:53:13.241Z,99.90
2019-01-25T20:55:43.113Z,99.90
2019-01-25T20:58:12.170Z,99.90
2019-01-25T21:00:41.515Z,99.90
2019-01-25T21:03:14.390Z,99.90
2019-01-25T21:05:43.454Z,99.90
2019-01-25T21:08:12.560Z,99.90
2019-01-25T21:10:41.867Z,99.90
2019-01-25T21:13:12.558Z,99.90
2019-01-25T21:15:41.909Z,99.90
2019-01-25T21:18:10.978Z,99.90
2019-01-25T21:20:44.002Z,99.90
2019-01-25T21:23:13.449Z,99.90
2019-01-25T21:25:42.453Z,99.90
2019-01-25T21:28:11.510Z,99.90
2019-01-25T21:30:40.897Z,99.90
2019-01-25T21:33:10.272Z,99.90
2019-01-25T21:35:39.702Z,99.90
2019-01-25T21:38:08.802Z,99.90
2019-01-25T21:40:38.189Z,99.90
2019-01-25T21:43:07.253Z,99.90
2019-01-25T21:45:43.040Z,99.90
2019-01-25T21:48:09.057Z,99.90
2019-01-25T21:50:41.870Z,99.90
2019-01-25T21:53:10.933Z,99.90
2019-01-25T21:55:40.330Z,99.90
2019-01-25T21:58:09.443Z,99.90
2019-01-25T22:00:38.569Z,99.90
2019-01-25T22:03:07.921Z,99.90
2019-01-25T22:05:37.030Z,99.90
2019-01-25T22:08:06.091Z,99.90
2019-01-25T22:10:40.167Z,99.90
2019-01-25T22:13:09.272Z,99.90
2019-01-25T22:15:38.390Z,99.90
2019-01-25T22:18:07.453Z,99.90
2019-01-25T22:20:36.566Z,99.90
2019-01-25T22:23:05.626Z,99.90
2019-01-25T22:25:34.711Z,99.90
2019-01-25T22:28:04.138Z,99.90
2019-01-25T22:30:33.969Z,99.90
2019-01-25T22:33:03.348Z,99.90
2019-01-25T22:35:32.743Z,99.90
2019-01-25T22:38:02.129Z,99.90
2019-01-25T22:40:31.813Z,99.90
2019-01-25T22:43:00.935Z,99.90
2019-01-25T22:45:30.746Z,99.90
2019-01-25T22:48:00.642Z,99.90
2019-01-25T22:50:33.308Z,99.90
2019-01-25T22:53:02.367Z,99.90
2019-01-25T22:55:31.437Z,99.90
2019-01-25T22:58:00.547Z,99.90
2019-01-25T23:00:48.875Z,99.90
2019-01-25T23:03:44.288Z,99.90
2019-01-25T23:06:21.265Z,99.90
2019-01-25T23:08:50.425Z,99.90
2019-01-25T23:11:19.979Z,99.90
2019-01-25T23:13:49.024Z,99.90
2019-01-25T23:16:18.131Z,99.90
2019-01-25T23:18:50.409Z,99.90
2019-01-25T23:21:19.482Z,99.90
2019-01-25T23:23:48.592Z,99.90
2019-01-25T23:26:17.649Z,99.90
2019-01-25T23:28:46.783Z,99.90
2019-01-25T23:31:15.885Z,99.90
2019-01-25T23:33:44.936Z,99.90
2019-01-25T23:36:13.995Z,99.90
2019-01-25T23:38:43.106Z,99.90
2019-01-25T23:41:12.470Z,99.90
2019-01-25T23:43:41.538Z,99.90
2019-01-25T23:46:13.878Z,99.90
2019-01-25T23:48:41.773Z,99.90
2019-01-25T23:51:10.841Z,99.90
2019-01-25T23:53:41.651Z,99.90
2019-01-25T23:56:11.058Z,99.90
2019-01-25T23:58:40.128Z,99.90
